Time;durP1;ratioP1;P1;durP2;ratioP2;P2;SDS_P1;SDS_P2;PMS_P1;PMS_P2;Temp;Humidity;BMP_temperature;BMP_pressure;BME280_temperature;BME280_humidity;BME280_pressure;Samples;Min_cycle;Max_cycle;Signal;HPM_P1;HPM_P2
2023/09/26 00:00:08;;;;;;;22.33;13.93;;;;;;;;;;5008310;28;20022;-72
2023/09/26 00:02:35;;;;;;;25.73;18.40;;;;;;;;;;5006477;28;20331;-70
2023/09/26 00:05:03;;;;;;;23.60;16.98;;;;;;;;;;5007711;28;20030;-71
2023/09/26 00:07:29;;;;;;;22.42;17.27;;;;;;;;;;5005213;28;20042;-72
2023/09/26 00:09:56;;;;;;;27.00;18.77;;;;;;;;;;5008057;28;20029;-72
2023/09/26 00:12:22;;;;;;;24.15;18.25;;;;;;;;;;5008530;28;20113;-72
2023/09/26 00:14:48;;;;;;;25.20;18.13;;;;;;;;;;4991149;28;20454;-72
2023/09/26 00:17:17;;;;;;;34.03;20.33;;;;;;;;;;5005986;28;20034;-73
2023/09/26 00:19:43;;;;;;;33.33;22.27;;;;;;;;;;4989687;28;20104;-71
2023/09/26 00:22:09;;;;;;;35.42;20.85;;;;;;;;;;5009898;28;20263;-72
2023/09/26 00:24:35;;;;;;;33.50;20.85;;;;;;;;;;5007141;28;20117;-71
2023/09/26 00:27:02;;;;;;;34.60;21.88;;;;;;;;;;5009362;28;20499;-71
2023/09/26 00:29:30;;;;;;;33.33;22.52;;;;;;;;;;4974686;28;20120;-72
2023/09/26 00:31:58;;;;;;;28.85;21.10;;;;;;;;;;5004747;28;20037;-73
2023/09/26 00:34:24;;;;;;;36.10;23.80;;;;;;;;;;5005329;28;20048;-72
2023/09/26 00:36:51;;;;;;;44.30;26.55;;;;;;;;;;5004731;28;20102;-72
2023/09/26 00:39:17;;;;;;;44.83;29.00;;;;;;;;;;5006724;28;21167;-72
2023/09/26 00:41:44;;;;;;;38.65;26.33;;;;;;;;;;4995848;28;20029;-72
2023/09/26 00:44:12;;;;;;;42.17;28.48;;;;;;;;;;5007565;28;20129;-72
2023/09/26 00:46:38;;;;;;;48.03;29.90;;;;;;;;;;4987744;28;20045;-73
2023/09/26 00:49:06;;;;;;;47.25;28.77;;;;;;;;;;5001721;28;20129;-73
2023/09/26 00:51:32;;;;;;;50.72;31.63;;;;;;;;;;5007462;28;20140;-72
2023/09/26 00:53:59;;;;;;;50.15;32.67;;;;;;;;;;5005779;28;20026;-72
2023/09/26 00:56:25;;;;;;;48.03;31.35;;;;;;;;;;5004639;28;20044;-72
2023/09/26 00:58:52;;;;;;;53.08;33.92;;;;;;;;;;5004718;28;20026;-73
2023/09/26 01:01:19;;;;;;;59.80;35.58;;;;;;;;;;5005926;28;20500;-73
2023/09/26 01:03:46;;;;;;;47.53;30.58;;;;;;;;;;5002936;28;20034;-73
2023/09/26 01:06:12;;;;;;;46.03;26.92;;;;;;;;;;5002839;28;20056;-72
2023/09/26 01:08:39;;;;;;;49.92;28.48;;;;;;;;;;5003119;28;20030;-73
2023/09/26 01:11:05;;;;;;;47.90;31.67;;;;;;;;;;5001795;28;20037;-72
2023/09/26 01:13:31;;;;;;;40.35;28.23;;;;;;;;;;5006527;28;20038;-72
2023/09/26 01:15:57;;;;;;;40.58;28.15;;;;;;;;;;5005878;28;20053;-71
2023/09/26 01:18:24;;;;;;;41.15;28.48;;;;;;;;;;5004923;28;20041;-72
2023/09/26 01:20:51;;;;;;;46.30;29.35;;;;;;;;;;5006063;28;20038;-72
2023/09/26 01:23:19;;;;;;;49.30;32.03;;;;;;;;;;5006820;28;20100;-73
2023/09/26 01:25:45;;;;;;;45.22;29.50;;;;;;;;;;5007164;28;20142;-72
2023/09/26 01:28:17;;;;;;;51.45;31.83;;;;;;;;;;5006124;28;20523;-73
2023/09/26 01:30:43;;;;;;;43.33;29.27;;;;;;;;;;5001435;28;20442;-72
2023/09/26 01:33:16;;;;;;;49.95;31.75;;;;;;;;;;4989140;28;20038;-73
2023/09/26 01:35:43;;;;;;;50.83;34.80;;;;;;;;;;5003056;28;20101;-72
2023/09/26 01:38:09;;;;;;;56.05;36.28;;;;;;;;;;5004048;28;20025;-72
2023/09/26 01:40:35;;;;;;;62.60;39.63;;;;;;;;;;5006176;28;20438;-73
2023/09/26 01:43:02;;;;;;;62.33;41.58;;;;;;;;;;5001485;28;20038;-73
2023/09/26 01:45:28;;;;;;;62.80;42.13;;;;;;;;;;5003514;28;20524;-73
2023/09/26 01:47:54;;;;;;;63.63;43.38;;;;;;;;;;5005403;28;20034;-73
2023/09/26 01:50:20;;;;;;;65.38;43.72;;;;;;;;;;5002105;28;20478;-73
2023/09/26 01:52:47;;;;;;;55.63;42.38;;;;;;;;;;4989390;28;20029;-72
2023/09/26 01:55:22;;;;;;;63.60;44.53;;;;;;;;;;5006194;28;20030;-72
2023/09/26 01:57:49;;;;;;;63.05;42.95;;;;;;;;;;5004078;28;20080;-73
2023/09/26 02:00:15;;;;;;;62.92;41.97;;;;;;;;;;5000497;28;20118;-72
2023/09/26 02:02:43;;;;;;;60.72;42.85;;;;;;;;;;5004255;28;20057;-72
2023/09/26 02:05:10;;;;;;;61.58;41.78;;;;;;;;;;5003469;28;20034;-72
2023/09/26 02:07:37;;;;;;;61.15;39.70;;;;;;;;;;5006226;28;20040;-72
2023/09/26 02:10:04;;;;;;;61.97;41.72;;;;;;;;;;5005381;28;20029;-73
2023/09/26 02:12:31;;;;;;;56.97;37.00;;;;;;;;;;5010082;28;21344;-73
2023/09/26 02:14:57;;;;;;;44.50;33.55;;;;;;;;;;5006429;28;20026;-72
2023/09/26 02:17:23;;;;;;;49.85;36.13;;;;;;;;;;5001960;28;20044;-72
2023/09/26 02:19:49;;;;;;;53.70;37.10;;;;;;;;;;5001403;28;20352;-72
2023/09/26 02:22:16;;;;;;;55.58;38.53;;;;;;;;;;5006356;28;20041;-72
2023/09/26 02:24:42;;;;;;;54.70;37.30;;;;;;;;;;4981105;28;20080;-72
2023/09/26 02:27:08;;;;;;;47.40;34.10;;;;;;;;;;5006294;28;20084;-72
2023/09/26 02:29:35;;;;;;;47.25;34.53;;;;;;;;;;4997957;28;20529;-72
2023/09/26 02:32:02;;;;;;;48.63;35.80;;;;;;;;;;5002228;28;20025;-73
2023/09/26 02:34:28;;;;;;;52.40;37.08;;;;;;;;;;4998357;28;20488;-72
2023/09/26 02:36:55;;;;;;;49.97;35.30;;;;;;;;;;4987625;28;20279;-72
2023/09/26 02:39:21;;;;;;;51.45;33.28;;;;;;;;;;4986329;28;20060;-72
2023/09/26 02:41:47;;;;;;;49.75;33.38;;;;;;;;;;4988582;28;20113;-72
2023/09/26 02:44:14;;;;;;;47.55;35.00;;;;;;;;;;4987623;28;20052;-72
2023/09/26 02:46:40;;;;;;;46.05;33.67;;;;;;;;;;5001118;28;20026;-73
2023/09/26 02:49:06;;;;;;;53.17;34.25;;;;;;;;;;5004000;28;20069;-72
2023/09/26 02:51:32;;;;;;;48.22;34.13;;;;;;;;;;5005312;28;20037;-72
2023/09/26 02:53:58;;;;;;;52.65;34.80;;;;;;;;;;4987671;28;20113;-71
2023/09/26 02:56:24;;;;;;;49.53;35.15;;;;;;;;;;4983219;28;20150;-72
2023/09/26 02:58:50;;;;;;;49.42;36.75;;;;;;;;;;5002332;28;20084;-72
2023/09/26 03:01:17;;;;;;;51.40;35.65;;;;;;;;;;4999933;28;20029;-71
2023/09/26 03:03:43;;;;;;;50.38;37.05;;;;;;;;;;4989628;28;20072;-71
2023/09/26 03:06:09;;;;;;;56.67;41.75;;;;;;;;;;5004763;28;20100;-72
2023/09/26 03:08:35;;;;;;;62.58;41.03;;;;;;;;;;5007616;28;20026;-72
2023/09/26 03:11:02;;;;;;;61.08;43.47;;;;;;;;;;5003597;28;20022;-72
2023/09/26 03:13:32;;;;;;;63.50;44.50;;;;;;;;;;4987242;28;20045;-72
2023/09/26 03:15:58;;;;;;;58.37;43.13;;;;;;;;;;4987092;28;20034;-72
2023/09/26 03:18:26;;;;;;;62.47;44.92;;;;;;;;;;5002013;28;20288;-72
2023/09/26 03:20:52;;;;;;;63.90;44.85;;;;;;;;;;5002671;28;20034;-73
2023/09/26 03:23:19;;;;;;;63.85;45.63;;;;;;;;;;5004840;28;20116;-72
2023/09/26 03:25:47;;;;;;;63.58;46.30;;;;;;;;;;5000240;28;20053;-72
2023/09/26 03:28:13;;;;;;;61.15;45.20;;;;;;;;;;5004626;28;20036;-72
2023/09/26 03:30:44;;;;;;;60.58;45.95;;;;;;;;;;5003921;28;20030;-73
2023/09/26 03:33:11;;;;;;;68.15;47.33;;;;;;;;;;5004184;28;20125;-72
2023/09/26 03:35:37;;;;;;;67.95;46.92;;;;;;;;;;5002022;28;20034;-72
2023/09/26 03:38:03;;;;;;;62.70;46.72;;;;;;;;;;5002078;28;20117;-73
2023/09/26 03:40:30;;;;;;;65.18;47.63;;;;;;;;;;5002950;28;20108;-73
2023/09/26 03:42:57;;;;;;;65.65;48.03;;;;;;;;;;5005733;28;20033;-74
2023/09/26 03:45:24;;;;;;;65.57;47.17;;;;;;;;;;5003614;28;20041;-73
2023/09/26 03:47:50;;;;;;;68.65;48.08;;;;;;;;;;5005811;28;20044;-72
2023/09/26 03:50:16;;;;;;;59.67;44.80;;;;;;;;;;5001729;28;20022;-71
2023/09/26 03:52:42;;;;;;;65.78;46.47;;;;;;;;;;5002406;28;20038;-72
2023/09/26 03:55:09;;;;;;;66.38;48.00;;;;;;;;;;5006916;28;20049;-71
2023/09/26 03:57:35;;;;;;;62.80;46.95;;;;;;;;;;5007555;28;20057;-72
2023/09/26 04:00:07;;;;;;;61.90;46.25;;;;;;;;;;5004413;28;20030;-71
2023/09/26 04:02:37;;;;;;;64.03;46.53;;;;;;;;;;5005119;28;20403;-71
2023/09/26 04:05:04;;;;;;;63.00;46.47;;;;;;;;;;5000250;28;20049;-71
2023/09/26 04:07:30;;;;;;;63.53;46.30;;;;;;;;;;5002710;28;20046;-72
2023/09/26 04:09:57;;;;;;;61.03;44.00;;;;;;;;;;5003278;28;20375;-72
2023/09/26 04:12:23;;;;;;;58.25;43.75;;;;;;;;;;5003907;28;20030;-73
2023/09/26 04:14:49;;;;;;;58.15;44.78;;;;;;;;;;5000406;28;20117;-72
2023/09/26 04:17:15;;;;;;;59.65;45.72;;;;;;;;;;5001551;28;20022;-72
2023/09/26 04:19:46;;;;;;;63.72;45.33;;;;;;;;;;4985397;28;20189;-72
2023/09/26 04:22:12;;;;;;;56.92;42.95;;;;;;;;;;5001569;28;20109;-73
2023/09/26 04:24:38;;;;;;;57.35;44.58;;;;;;;;;;5001949;28;20030;-72
2023/09/26 04:27:04;;;;;;;62.60;43.17;;;;;;;;;;5002877;28;20041;-72
2023/09/26 04:29:30;;;;;;;59.00;41.78;;;;;;;;;;4988334;28;20033;-73
2023/09/26 04:31:56;;;;;;;56.78;41.67;;;;;;;;;;5005661;28;20042;-72
2023/09/26 04:34:26;;;;;;;52.40;41.95;;;;;;;;;;4990108;28;20336;-72
2023/09/26 04:36:52;;;;;;;57.55;42.50;;;;;;;;;;5007432;28;20502;-73
2023/09/26 04:39:18;;;;;;;57.78;43.20;;;;;;;;;;5005248;28;20064;-72
2023/09/26 04:41:45;;;;;;;59.45;43.22;;;;;;;;;;5009593;28;20466;-73
2023/09/26 04:44:11;;;;;;;57.83;42.80;;;;;;;;;;5007110;28;20402;-72
2023/09/26 04:46:38;;;;;;;58.67;42.67;;;;;;;;;;4990197;28;20144;-73
2023/09/26 04:49:05;;;;;;;55.13;41.30;;;;;;;;;;5007797;28;20518;-72
2023/09/26 04:51:31;;;;;;;59.47;43.17;;;;;;;;;;5006603;28;20041;-72
2023/09/26 04:54:01;;;;;;;64.53;42.05;;;;;;;;;;5006053;28;20030;-72
2023/09/26 04:56:27;;;;;;;60.53;45.47;;;;;;;;;;5006636;28;20038;-72
2023/09/26 04:58:53;;;;;;;60.85;45.10;;;;;;;;;;5005149;28;20069;-72
2023/09/26 05:01:24;;;;;;;59.50;44.70;;;;;;;;;;5007123;28;20852;-72
2023/09/26 05:03:50;;;;;;;57.85;43.80;;;;;;;;;;5004585;28;20041;-73
2023/09/26 05:06:17;;;;;;;60.72;43.67;;;;;;;;;;5006919;28;20464;-73
2023/09/26 05:08:45;;;;;;;60.63;44.85;;;;;;;;;;5009688;28;20084;-73
2023/09/26 05:11:14;;;;;;;61.35;44.05;;;;;;;;;;5009873;28;20030;-72
2023/09/26 05:13:42;;;;;;;63.13;43.60;;;;;;;;;;5010073;28;20026;-73
2023/09/26 05:16:08;;;;;;;63.33;43.83;;;;;;;;;;5007320;28;20038;-73
2023/09/26 05:18:35;;;;;;;64.88;44.92;;;;;;;;;;5005283;28;20034;-73
2023/09/26 05:21:05;;;;;;;66.32;45.30;;;;;;;;;;5007467;28;20054;-73
2023/09/26 05:23:32;;;;;;;61.90;45.00;;;;;;;;;;5008909;28;20427;-73
2023/09/26 05:26:08;;;;;;;66.15;44.92;;;;;;;;;;5007945;28;20038;-72
2023/09/26 05:28:34;;;;;;;58.15;44.33;;;;;;;;;;5018421;28;20511;-73
2023/09/26 05:31:00;;;;;;;62.08;43.95;;;;;;;;;;5011805;28;20034;-73
2023/09/26 05:33:26;;;;;;;60.47;43.63;;;;;;;;;;5005430;28;20026;-72
2023/09/26 05:35:53;;;;;;;63.03;44.58;;;;;;;;;;5008100;28;20562;-71
2023/09/26 05:38:20;;;;;;;65.00;43.72;;;;;;;;;;4990817;28;20051;-72
2023/09/26 05:40:46;;;;;;;57.55;42.42;;;;;;;;;;5005616;28;20056;-71
2023/09/26 05:43:12;;;;;;;71.82;45.85;;;;;;;;;;5008275;28;20047;-72
2023/09/26 05:45:38;;;;;;;54.78;42.17;;;;;;;;;;4993338;28;20034;-71
2023/09/26 05:48:05;;;;;;;56.85;41.65;;;;;;;;;;5005908;28;20093;-72
2023/09/26 05:50:31;;;;;;;57.42;41.92;;;;;;;;;;4988216;28;20060;-72
2023/09/26 05:52:57;;;;;;;54.80;41.38;;;;;;;;;;5006420;28;20113;-71
2023/09/26 05:55:24;;;;;;;56.80;41.75;;;;;;;;;;5003843;28;20096;-72
2023/09/26 05:57:50;;;;;;;58.22;40.70;;;;;;;;;;5005392;28;20045;-72
2023/09/26 06:00:16;;;;;;;55.97;38.95;;;;;;;;;;5004737;28;20053;-71
2023/09/26 06:02:43;;;;;;;50.20;37.55;;;;;;;;;;4997795;28;20117;-71
2023/09/26 06:05:11;;;;;;;53.05;39.45;;;;;;;;;;5002730;28;20065;-71
2023/09/26 06:07:37;;;;;;;51.75;39.13;;;;;;;;;;5005348;28;20112;-72
2023/09/26 06:10:04;;;;;;;48.97;39.00;;;;;;;;;;4972271;28;20083;-71
2023/09/26 06:12:31;;;;;;;49.40;37.80;;;;;;;;;;5004501;28;20121;-72
2023/09/26 06:14:57;;;;;;;47.67;36.17;;;;;;;;;;4999295;28;20120;-72
2023/09/26 06:17:23;;;;;;;48.00;36.65;;;;;;;;;;5003220;28;20029;-72
2023/09/26 06:19:49;;;;;;;44.47;35.53;;;;;;;;;;5005388;28;20030;-72
2023/09/26 06:22:16;;;;;;;47.17;35.83;;;;;;;;;;5003437;28;20053;-72
2023/09/26 06:24:42;;;;;;;46.85;34.97;;;;;;;;;;5001786;28;20026;-72
2023/09/26 06:27:08;;;;;;;42.85;33.17;;;;;;;;;;5001024;28;20137;-73
2023/09/26 06:29:41;;;;;;;39.65;32.40;;;;;;;;;;5004698;28;20507;-72
2023/09/26 06:32:10;;;;;;;41.53;31.92;;;;;;;;;;5007773;28;20040;-72
2023/09/26 06:34:39;;;;;;;39.72;31.13;;;;;;;;;;5001867;28;20054;-72
2023/09/26 06:37:05;;;;;;;37.78;30.40;;;;;;;;;;5003599;28;20025;-72
2023/09/26 06:39:31;;;;;;;38.25;30.23;;;;;;;;;;5006220;28;20049;-72
2023/09/26 06:41:58;;;;;;;43.42;30.50;;;;;;;;;;5004024;28;20030;-71
2023/09/26 06:44:24;;;;;;;37.95;29.15;;;;;;;;;;4999256;28;20106;-72
2023/09/26 06:46:51;;;;;;;38.63;27.95;;;;;;;;;;5002000;28;20038;-71
2023/09/26 06:49:17;;;;;;;41.17;29.83;;;;;;;;;;5002836;28;20026;-72
2023/09/26 06:51:45;;;;;;;38.90;28.42;;;;;;;;;;5000033;28;20117;-70
2023/09/26 06:54:11;;;;;;;36.60;27.88;;;;;;;;;;5003239;28;20030;-70
2023/09/26 06:56:38;;;;;;;34.13;26.75;;;;;;;;;;5006241;28;20084;-71
2023/09/26 06:59:04;;;;;;;41.35;28.02;;;;;;;;;;4987958;28;20046;-71
2023/09/26 07:01:30;;;;;;;32.40;26.35;;;;;;;;;;5002922;28;20037;-71
2023/09/26 07:03:56;;;;;;;30.95;26.20;;;;;;;;;;5007261;28;20044;-71
2023/09/26 07:06:22;;;;;;;37.60;27.50;;;;;;;;;;5010116;28;20536;-71
2023/09/26 07:08:49;;;;;;;37.20;25.00;;;;;;;;;;5013690;28;20072;-71
2023/09/26 07:11:15;;;;;;;36.47;26.55;;;;;;;;;;5013136;28;20026;-71
2023/09/26 07:13:41;;;;;;;38.40;26.48;;;;;;;;;;5006263;28;20038;-70
2023/09/26 07:16:08;;;;;;;29.13;24.88;;;;;;;;;;5006584;28;20037;-71
2023/09/26 07:18:35;;;;;;;34.10;25.10;;;;;;;;;;5009542;28;20034;-70
2023/09/26 07:21:05;;;;;;;34.35;27.15;;;;;;;;;;5009867;28;20029;-75
2023/09/26 07:23:37;;;;;;;33.90;24.20;;;;;;;;;;5009647;28;20630;-72
2023/09/26 07:26:07;;;;;;;28.77;23.33;;;;;;;;;;5004934;28;20293;-72
2023/09/26 07:28:33;;;;;;;33.15;22.55;;;;;;;;;;5008653;28;20041;-72
2023/09/26 07:30:59;;;;;;;38.28;23.00;;;;;;;;;;4992539;28;20042;-73
2023/09/26 07:33:28;;;;;;;30.95;22.45;;;;;;;;;;5006385;28;20079;-71
2023/09/26 07:35:54;;;;;;;30.23;23.65;;;;;;;;;;5006847;28;20109;-71
2023/09/26 07:38:21;;;;;;;30.42;23.30;;;;;;;;;;5006554;28;20029;-71
2023/09/26 07:40:47;;;;;;;29.25;22.35;;;;;;;;;;4991617;28;20026;-71
2023/09/26 07:43:13;;;;;;;26.92;21.92;;;;;;;;;;5005694;28;20026;-70
2023/09/26 07:45:40;;;;;;;29.00;23.88;;;;;;;;;;4986741;28;20113;-70
2023/09/26 07:48:06;;;;;;;24.35;20.90;;;;;;;;;;5002937;28;20034;-72
2023/09/26 07:50:34;;;;;;;27.75;23.30;;;;;;;;;;5009138;28;20026;-70
2023/09/26 07:53:02;;;;;;;30.52;23.30;;;;;;;;;;4989879;28;20405;-71
2023/09/26 07:55:28;;;;;;;34.53;24.35;;;;;;;;;;5007472;28;20092;-70
2023/09/26 07:57:55;;;;;;;29.17;23.50;;;;;;;;;;5004301;28;20022;-71
2023/09/26 08:00:21;;;;;;;30.90;22.75;;;;;;;;;;5008401;28;20100;-71
2023/09/26 08:02:47;;;;;;;25.42;21.48;;;;;;;;;;5005972;28;20525;-71
2023/09/26 08:05:13;;;;;;;27.73;20.95;;;;;;;;;;5005212;28;20104;-71
2023/09/26 08:07:42;;;;;;;21.25;18.95;;;;;;;;;;5006378;28;20081;-71
2023/09/26 08:10:09;;;;;;;24.10;17.85;;;;;;;;;;5012928;28;20045;-72
2023/09/26 08:12:36;;;;;;;24.65;18.20;;;;;;;;;;5011536;28;20038;-72
2023/09/26 08:15:02;;;;;;;24.48;19.58;;;;;;;;;;5009644;28;20483;-71
2023/09/26 08:17:28;;;;;;;23.92;19.08;;;;;;;;;;5010835;28;20487;-70
2023/09/26 08:19:55;;;;;;;23.77;18.10;;;;;;;;;;4972864;28;20026;-70
2023/09/26 08:22:21;;;;;;;22.98;18.50;;;;;;;;;;5011865;28;20076;-70
2023/09/26 08:24:47;;;;;;;24.38;17.80;;;;;;;;;;5013265;28;20030;-70
2023/09/26 08:27:14;;;;;;;26.98;17.55;;;;;;;;;;5021916;28;20033;-70
2023/09/26 08:29:41;;;;;;;29.55;17.48;;;;;;;;;;5021788;28;20030;-71
2023/09/26 08:32:07;;;;;;;20.63;16.63;;;;;;;;;;5006660;28;20399;-70
2023/09/26 08:34:33;;;;;;;20.75;17.10;;;;;;;;;;5010783;28;20030;-72
2023/09/26 08:36:59;;;;;;;24.10;17.67;;;;;;;;;;4993687;28;20551;-71
2023/09/26 08:39:26;;;;;;;20.52;16.23;;;;;;;;;;5007525;28;20108;-71
2023/09/26 08:41:53;;;;;;;24.30;15.02;;;;;;;;;;5016691;28;20026;-72
2023/09/26 08:44:19;;;;;;;21.20;15.23;;;;;;;;;;5011704;28;20034;-72
2023/09/26 08:46:45;;;;;;;19.20;14.60;;;;;;;;;;5027456;28;20061;-72
2023/09/26 08:49:12;;;;;;;20.13;14.07;;;;;;;;;;5010847;28;20440;-72
2023/09/26 08:51:38;;;;;;;18.42;13.77;;;;;;;;;;5010574;28;20030;-71
2023/09/26 08:54:04;;;;;;;18.55;14.55;;;;;;;;;;5007263;28;20030;-72
2023/09/26 08:56:33;;;;;;;18.38;14.02;;;;;;;;;;5007524;28;20026;-72
2023/09/26 08:59:02;;;;;;;22.05;14.18;;;;;;;;;;5007896;28;20352;-72
2023/09/26 09:01:30;;;;;;;18.52;12.85;;;;;;;;;;5008393;28;20034;-71
2023/09/26 09:03:57;;;;;;;17.42;12.57;;;;;;;;;;5008876;28;20065;-71
2023/09/26 09:06:23;;;;;;;20.27;11.90;;;;;;;;;;5008759;28;20495;-72
2023/09/26 09:08:49;;;;;;;20.67;12.52;;;;;;;;;;5009250;28;20568;-72
2023/09/26 09:11:30;;;;;;;20.65;12.90;;;;;;;;;;5007020;28;20022;-72
2023/09/26 09:13:57;;;;;;;17.85;11.68;;;;;;;;;;5009804;28;20032;-72
2023/09/26 09:16:23;;;;;;;16.10;12.45;;;;;;;;;;5009215;28;20128;-72
2023/09/26 09:18:58;;;;;;;15.88;11.45;;;;;;;;;;5011358;28;20521;-73
2023/09/26 09:21:30;;;;;;;19.25;11.73;;;;;;;;;;5015995;28;20030;-71
2023/09/26 09:24:00;;;;;;;18.42;12.27;;;;;;;;;;5009928;28;20136;-70
2023/09/26 09:26:29;;;;;;;16.15;12.10;;;;;;;;;;5006201;28;20044;-71
2023/09/26 09:28:58;;;;;;;15.20;11.88;;;;;;;;;;5010312;28;20026;-71
2023/09/26 09:31:25;;;;;;;18.23;11.50;;;;;;;;;;5011541;28;20030;-73
2023/09/26 09:33:56;;;;;;;21.80;12.65;;;;;;;;;;5007207;28;20049;-72
2023/09/26 09:36:22;;;;;;;16.17;11.93;;;;;;;;;;5009562;28;20033;-71
2023/09/26 09:38:49;;;;;;;15.15;11.15;;;;;;;;;;5009036;28;20033;-71
2023/09/26 09:41:16;;;;;;;15.25;11.18;;;;;;;;;;5007736;28;20033;-71
2023/09/26 09:43:42;;;;;;;15.63;11.13;;;;;;;;;;5005211;28;20180;-72
2023/09/26 09:46:10;;;;;;;16.95;11.20;;;;;;;;;;5001156;28;20038;-70
2023/09/26 09:48:41;;;;;;;14.85;11.27;;;;;;;;;;5010211;28;20053;-71
2023/09/26 09:51:09;;;;;;;16.70;11.05;;;;;;;;;;5009675;28;20038;-71
2023/09/26 09:53:35;;;;;;;15.82;11.90;;;;;;;;;;5013936;28;20303;-70
2023/09/26 09:56:04;;;;;;;17.23;11.70;;;;;;;;;;5010646;28;20042;-74
2023/09/26 09:58:32;;;;;;;14.77;11.98;;;;;;;;;;5012943;28;20038;-70
2023/09/26 10:01:00;;;;;;;17.00;11.60;;;;;;;;;;5007464;28;20033;-71
2023/09/26 10:03:26;;;;;;;16.13;11.38;;;;;;;;;;5001264;28;20034;-70
2023/09/26 10:05:53;;;;;;;17.65;12.00;;;;;;;;;;5008309;28;20133;-71
2023/09/26 10:08:20;;;;;;;18.92;12.38;;;;;;;;;;5010677;28;20044;-71
2023/09/26 10:10:47;;;;;;;19.30;11.65;;;;;;;;;;5003884;28;20044;-71
2023/09/26 10:13:15;;;;;;;17.55;11.18;;;;;;;;;;5009074;28;20048;-72
2023/09/26 10:16:00;;;;;;;16.75;11.20;;;;;;;;;;5002829;28;20112;-72
2023/09/26 10:18:26;;;;;;;14.15;10.75;;;;;;;;;;5002802;28;20022;-73
2023/09/26 10:20:52;;;;;;;16.45;10.98;;;;;;;;;;5006586;28;20430;-71
2023/09/26 10:23:18;;;;;;;16.33;10.30;;;;;;;;;;5009242;28;20040;-71
2023/09/26 10:25:44;;;;;;;13.88;10.57;;;;;;;;;;5007395;28;20047;-71
2023/09/26 10:28:11;;;;;;;14.25;10.60;;;;;;;;;;5003756;28;20430;-71
2023/09/26 10:30:47;;;;;;;14.43;10.27;;;;;;;;;;5003966;28;20491;-71
2023/09/26 10:33:13;;;;;;;17.13;10.65;;;;;;;;;;4999807;28;20069;-72
2023/09/26 10:35:43;;;;;;;13.75;9.88;;;;;;;;;;5003186;28;20033;-72
2023/09/26 10:38:18;;;;;;;15.48;10.82;;;;;;;;;;5002541;28;20030;-71
2023/09/26 10:40:45;;;;;;;15.15;11.15;;;;;;;;;;5002628;28;20141;-71
2023/09/26 10:43:11;;;;;;;13.50;10.32;;;;;;;;;;5001824;28;20030;-71
2023/09/26 10:45:44;;;;;;;14.38;9.60;;;;;;;;;;5001838;28;20073;-72
2023/09/26 10:48:11;;;;;;;13.65;10.27;;;;;;;;;;4999065;28;20028;-72
2023/09/26 10:50:37;;;;;;;14.68;10.10;;;;;;;;;;5002982;28;20026;-72
2023/09/26 10:53:03;;;;;;;15.05;9.55;;;;;;;;;;5004837;28;20092;-71
2023/09/26 10:55:32;;;;;;;15.82;10.20;;;;;;;;;;5002371;28;20526;-72
2023/09/26 10:57:58;;;;;;;13.05;9.00;;;;;;;;;;5002713;28;20033;-69
2023/09/26 11:00:24;;;;;;;16.13;10.77;;;;;;;;;;5006043;28;20407;-72
2023/09/26 11:02:50;;;;;;;14.70;9.95;;;;;;;;;;5005071;28;20042;-71
2023/09/26 11:05:17;;;;;;;17.20;8.85;;;;;;;;;;5000503;28;20044;-73
2023/09/26 11:07:47;;;;;;;13.05;9.25;;;;;;;;;;5005670;28;20080;-71
2023/09/26 11:10:14;;;;;;;13.53;8.73;;;;;;;;;;5000212;28;20033;-71
2023/09/26 11:12:40;;;;;;;14.15;9.38;;;;;;;;;;5001834;28;20132;-72
2023/09/26 11:15:07;;;;;;;11.00;7.82;;;;;;;;;;5001471;28;20495;-72
2023/09/26 11:17:34;;;;;;;12.07;7.13;;;;;;;;;;5006446;28;20117;-72
2023/09/26 11:20:00;;;;;;;11.63;7.43;;;;;;;;;;5003578;28;20046;-73
2023/09/26 11:22:27;;;;;;;10.85;6.68;;;;;;;;;;5003060;28;20026;-71
2023/09/26 11:25:06;;;;;;;10.40;6.05;;;;;;;;;;5003148;28;20038;-71
2023/09/26 11:27:36;;;;;;;14.13;6.88;;;;;;;;;;5002113;28;20026;-72
2023/09/26 11:30:03;;;;;;;10.57;6.45;;;;;;;;;;5001018;28;20074;-70
2023/09/26 11:32:29;;;;;;;9.90;6.60;;;;;;;;;;5005186;28;20077;-71
2023/09/26 11:34:56;;;;;;;8.23;6.13;;;;;;;;;;5002556;28;20057;-72
2023/09/26 11:37:23;;;;;;;10.95;6.28;;;;;;;;;;5001569;28;20534;-70
2023/09/26 11:39:54;;;;;;;8.90;5.75;;;;;;;;;;5005032;28;20116;-73
2023/09/26 11:42:20;;;;;;;12.25;6.18;;;;;;;;;;4995201;28;20033;-70
2023/09/26 11:44:56;;;;;;;10.50;5.95;;;;;;;;;;5006167;28;20038;-72
2023/09/26 11:47:27;;;;;;;13.10;5.95;;;;;;;;;;5004332;28;20034;-72
2023/09/26 11:49:53;;;;;;;11.90;6.10;;;;;;;;;;5005890;28;20137;-73
2023/09/26 11:52:19;;;;;;;11.77;5.82;;;;;;;;;;5009874;28;20029;-71
2023/09/26 11:54:45;;;;;;;15.60;5.63;;;;;;;;;;5009510;28;20038;-70
2023/09/26 11:57:12;;;;;;;9.18;5.65;;;;;;;;;;5004937;28;20038;-71
2023/09/26 11:59:39;;;;;;;10.90;5.95;;;;;;;;;;5007117;28;20049;-71
2023/09/26 12:02:05;;;;;;;8.80;6.30;;;;;;;;;;5008999;28;20038;-71
2023/09/26 12:04:32;;;;;;;10.63;6.20;;;;;;;;;;5009211;28;20030;-71
2023/09/26 12:06:59;;;;;;;12.00;6.25;;;;;;;;;;5010150;28;20053;-71
2023/09/26 12:09:28;;;;;;;11.18;5.65;;;;;;;;;;5008859;28;20121;-69
2023/09/26 12:11:55;;;;;;;9.80;6.13;;;;;;;;;;5007797;28;20038;-72
2023/09/26 12:14:21;;;;;;;8.45;5.70;;;;;;;;;;5008459;28;20092;-71
2023/09/26 12:16:51;;;;;;;8.75;5.68;;;;;;;;;;5009751;28;20062;-71
2023/09/26 12:19:19;;;;;;;11.75;6.30;;;;;;;;;;5002134;28;20109;-71
2023/09/26 12:21:46;;;;;;;11.50;5.13;;;;;;;;;;5006688;28;20081;-72
2023/09/26 12:24:13;;;;;;;8.55;5.18;;;;;;;;;;5012225;28;20034;-70
2023/09/26 12:26:41;;;;;;;10.23;5.57;;;;;;;;;;5011626;28;20025;-71
2023/09/26 12:29:07;;;;;;;9.93;5.97;;;;;;;;;;5003237;28;20030;-72
2023/09/26 12:31:33;;;;;;;9.98;4.85;;;;;;;;;;5008234;28;20034;-71
2023/09/26 12:34:02;;;;;;;10.90;4.75;;;;;;;;;;5009669;28;20130;-69
2023/09/26 12:36:28;;;;;;;11.68;4.90;;;;;;;;;;5003996;28;20040;-70
2023/09/26 12:38:55;;;;;;;10.77;4.57;;;;;;;;;;5009757;28;20034;-70
2023/09/26 12:41:21;;;;;;;9.00;4.47;;;;;;;;;;5010374;28;20041;-71
2023/09/26 12:43:47;;;;;;;12.68;5.53;;;;;;;;;;5008600;28;20427;-69
2023/09/26 12:46:14;;;;;;;7.68;4.78;;;;;;;;;;5005911;28;20057;-69
2023/09/26 12:48:41;;;;;;;9.43;4.55;;;;;;;;;;4999758;28;20068;-69
2023/09/26 12:51:07;;;;;;;10.57;4.55;;;;;;;;;;4986706;28;20061;-70
2023/09/26 12:53:33;;;;;;;11.23;4.00;;;;;;;;;;5000272;28;20029;-71
2023/09/26 12:55:59;;;;;;;13.52;5.13;;;;;;;;;;4990122;28;20156;-71
2023/09/26 12:58:25;;;;;;;10.68;4.70;;;;;;;;;;5002678;28;20057;-71
2023/09/26 13:00:52;;;;;;;8.38;4.28;;;;;;;;;;5003370;28;20471;-71
2023/09/26 13:03:18;;;;;;;12.60;4.90;;;;;;;;;;5004192;28;20041;-70
2023/09/26 13:05:46;;;;;;;11.45;4.65;;;;;;;;;;5001889;28;20447;-70
2023/09/26 13:08:12;;;;;;;7.88;4.47;;;;;;;;;;5003633;28;20054;-71
2023/09/26 13:10:38;;;;;;;9.48;4.45;;;;;;;;;;5011239;28;20053;-70
2023/09/26 13:13:05;;;;;;;10.40;4.60;;;;;;;;;;5001731;28;20092;-70
2023/09/26 13:15:31;;;;;;;9.40;4.43;;;;;;;;;;5004593;28;20042;-70
2023/09/26 13:17:58;;;;;;;9.55;4.68;;;;;;;;;;4971368;28;20145;-70
2023/09/26 13:20:24;;;;;;;12.32;4.60;;;;;;;;;;5005408;28;20038;-71
2023/09/26 13:22:50;;;;;;;9.90;4.13;;;;;;;;;;5004056;28;20124;-71
2023/09/26 13:25:17;;;;;;;10.05;3.95;;;;;;;;;;5006281;28;20038;-70
2023/09/26 13:27:43;;;;;;;13.40;4.32;;;;;;;;;;5004942;28;20076;-71
2023/09/26 13:30:09;;;;;;;8.20;4.00;;;;;;;;;;5007197;28;20061;-69
2023/09/26 13:32:35;;;;;;;10.82;4.00;;;;;;;;;;5008284;28;20064;-70
2023/09/26 13:35:04;;;;;;;6.30;3.60;;;;;;;;;;5006458;28;20076;-70
2023/09/26 13:37:31;;;;;;;9.15;3.45;;;;;;;;;;5003308;28;20042;-69
2023/09/26 13:39:57;;;;;;;6.47;3.92;;;;;;;;;;4999009;28;20716;-71
2023/09/26 13:42:23;;;;;;;10.27;4.75;;;;;;;;;;5006669;28;20064;-72
2023/09/26 13:44:51;;;;;;;15.18;4.22;;;;;;;;;;5007633;28;20056;-70
2023/09/26 13:47:18;;;;;;;10.63;3.83;;;;;;;;;;5002796;28;20045;-71
2023/09/26 13:49:44;;;;;;;9.27;3.83;;;;;;;;;;5003258;28;20080;-70
2023/09/26 13:52:10;;;;;;;10.48;4.05;;;;;;;;;;5005746;28;20030;-70
2023/09/26 13:54:36;;;;;;;8.07;4.13;;;;;;;;;;5003532;28;20034;-71
2023/09/26 13:57:02;;;;;;;10.27;3.85;;;;;;;;;;5002990;28;20077;-72
2023/09/26 13:59:28;;;;;;;12.35;4.45;;;;;;;;;;5005727;28;20037;-71
2023/09/26 14:01:54;;;;;;;6.45;3.53;;;;;;;;;;4987809;28;20113;-72
2023/09/26 14:04:21;;;;;;;10.32;4.35;;;;;;;;;;5007785;28;20036;-72
2023/09/26 14:06:47;;;;;;;8.57;4.18;;;;;;;;;;5007514;28;20050;-69
2023/09/26 14:09:13;;;;;;;6.95;4.05;;;;;;;;;;5007461;28;20072;-72
2023/09/26 14:11:39;;;;;;;9.75;4.90;;;;;;;;;;5005179;28;20027;-69
2023/09/26 14:14:05;;;;;;;9.60;4.70;;;;;;;;;;5004525;28;20037;-69
2023/09/26 14:16:32;;;;;;;15.07;4.97;;;;;;;;;;5008016;28;20033;-70
2023/09/26 14:18:58;;;;;;;8.65;5.40;;;;;;;;;;5006612;28;20033;-70